createdAt,value
2022-11-16T05:22:30.385Z,7.65
2022-11-16T05:24:57.783Z,7.66
2022-11-16T05:27:25.688Z,7.65
2022-11-16T05:29:52.290Z,7.51
2022-11-16T05:32:20.353Z,7.66
2022-11-16T05:34:47.298Z,7.66
2022-11-16T05:37:15.981Z,7.66
2022-11-16T05:39:43.556Z,7.51
2022-11-16T05:42:10.087Z,7.68
2022-11-16T05:44:36.861Z,7.67
2022-11-16T05:47:03.906Z,7.68
2022-11-16T05:49:30.360Z,7.63
2022-11-16T05:51:57.327Z,7.57
2022-11-16T05:54:25.844Z,7.68
2022-11-16T05:56:52.138Z,7.68
2022-11-16T05:59:20.770Z,7.69
2022-11-16T06:01:49.030Z,7.69
2022-11-16T06:04:16.221Z,7.70
2022-11-16T06:06:42.633Z,7.69
2022-11-16T06:09:12.075Z,7.72
2022-11-16T06:11:38.774Z,7.72
2022-11-16T06:14:05.566Z,7.73
2022-11-16T06:16:32.005Z,7.63
2022-11-16T06:18:59.507Z,7.76
2022-11-16T06:21:25.868Z,7.75
2022-11-16T06:23:53.550Z,7.75
2022-11-16T06:26:20.192Z,7.75
2022-11-16T06:28:46.798Z,7.76
2022-11-16T06:31:16.300Z,7.75
2022-11-16T06:33:44.069Z,7.75
2022-11-16T06:36:11.329Z,7.76
2022-11-16T06:38:37.748Z,7.52
2022-11-16T06:41:04.761Z,7.68
2022-11-16T06:43:33.823Z,7.78
2022-11-16T06:46:00.146Z,7.79
2022-11-16T06:48:26.985Z,7.64
2022-11-16T06:50:54.174Z,7.73
2022-11-16T06:53:27.501Z,7.75
2022-11-16T06:55:56.073Z,7.76
2022-11-16T06:58:42.559Z,7.82
2022-11-16T07:01:11.525Z,7.66
2022-11-16T07:03:38.678Z,7.76
2022-11-16T07:06:10.278Z,7.83
2022-11-16T07:08:37.551Z,7.88
2022-11-16T07:11:05.423Z,7.53
2022-11-16T07:13:36.609Z,7.90
2022-11-16T07:16:08.296Z,7.92
2022-11-16T07:18:36.934Z,7.94
2022-11-16T07:21:15.669Z,7.96
2022-11-16T07:23:42.871Z,7.99
2022-11-16T07:26:10.494Z,8.00
2022-11-16T07:28:50.595Z,8.02
2022-11-16T07:31:18.618Z,7.89
2022-11-16T07:33:51.974Z,7.96
2022-11-16T07:36:29.717Z,7.99
2022-11-16T07:38:57.183Z,7.99
2022-11-16T07:41:24.189Z,7.98
2022-11-16T07:43:56.874Z,8.00
2022-11-16T07:49:15.539Z,8.00
2022-11-16T07:51:45.811Z,7.92
2022-11-16T07:54:24.565Z,7.78
2022-11-16T07:56:51.475Z,8.01
2022-11-16T07:59:18.169Z,8.02
2022-11-16T08:01:48.774Z,8.06
2022-11-16T08:04:17.588Z,8.01
2022-11-16T08:06:44.722Z,7.99
2022-11-16T08:09:11.047Z,8.11
2022-11-16T08:11:38.100Z,8.09
2022-11-16T08:14:04.386Z,8.06
2022-11-16T08:16:33.556Z,7.97
2022-11-16T08:19:02.309Z,8.15
2022-11-16T08:21:28.800Z,8.03
2022-11-16T08:23:58.340Z,8.08
2022-11-16T08:26:26.222Z,8.19
2022-11-16T08:28:53.917Z,8.15
2022-11-16T08:31:24.162Z,8.08
2022-11-16T08:33:54.276Z,8.16
2022-11-16T08:36:21.138Z,8.07
2022-11-16T08:38:49.046Z,8.17
2022-11-16T08:41:16.495Z,8.18
2022-11-16T08:43:44.488Z,8.18
2022-11-16T08:46:11.410Z,8.18
2022-11-16T08:48:38.866Z,8.19
2022-11-16T08:51:18.202Z,8.20
2022-11-16T08:53:48.656Z,8.23
2022-11-16T08:56:22.786Z,8.18
2022-11-16T08:58:58.162Z,8.18
2022-11-16T09:01:26.891Z,8.23
2022-11-16T09:03:56.607Z,8.26
2022-11-16T09:06:26.949Z,8.25
2022-11-16T09:08:53.893Z,8.26
2022-11-16T09:11:26.312Z,8.15
2022-11-16T09:13:54.737Z,8.17
2022-11-16T09:16:22.344Z,8.29
2022-11-16T09:18:49.919Z,8.19
2022-11-16T09:21:32.757Z,8.00
2022-11-16T09:24:06.300Z,8.08
2022-11-16T09:26:32.691Z,7.99
2022-11-16T09:29:00.891Z,8.35
2022-11-16T09:31:30.286Z,8.38
2022-11-16T09:33:58.894Z,8.39
2022-11-16T09:36:31.955Z,8.36
2022-11-16T09:42:14.532Z,8.35
2022-11-16T09:45:08.981Z,8.36
2022-11-16T09:47:59.295Z,8.40
2022-11-16T09:50:45.826Z,8.24
2022-11-16T09:53:36.588Z,8.40
2022-11-16T09:56:07.785Z,8.42
2022-11-16T09:58:48.479Z,8.35
2022-11-16T10:01:23.199Z,8.44
2022-11-16T10:03:58.768Z,8.55
2022-11-16T10:06:35.752Z,8.57
2022-11-16T10:09:02.334Z,8.57
2022-11-16T10:11:37.100Z,8.56
2022-11-16T10:14:29.974Z,8.57
2022-11-16T10:17:04.642Z,8.57
2022-11-16T10:19:46.761Z,8.59
2022-11-16T10:22:31.754Z,8.59
2022-11-16T10:25:00.786Z,8.60
2022-11-16T10:28:09.323Z,8.49
2022-11-16T10:30:42.798Z,8.61
2022-11-16T10:33:16.005Z,8.51
2022-11-16T10:35:45.511Z,8.60
2022-11-16T10:38:40.037Z,8.55
2022-11-16T10:41:22.388Z,8.36
2022-11-16T10:43:49.585Z,8.59
2022-11-16T10:46:40.831Z,8.55
2022-11-16T10:49:16.868Z,8.56
2022-11-16T10:51:43.675Z,8.74
2022-11-16T10:54:14.357Z,8.71
2022-11-16T10:56:45.342Z,8.65
2022-11-16T10:59:20.765Z,8.62
2022-11-16T11:01:57.662Z,8.70
2022-11-16T11:04:25.194Z,8.73
2022-11-16T11:07:02.703Z,8.75
2022-11-16T11:09:35.244Z,8.65
2022-11-16T11:12:30.844Z,8.72
2022-11-16T11:15:05.898Z,8.78
2022-11-16T11:17:34.942Z,8.77
2022-11-16T11:20:17.501Z,8.64
2022-11-16T11:22:59.119Z,8.65
2022-11-16T11:25:56.664Z,8.68
2022-11-16T11:28:32.232Z,8.73
2022-11-16T11:31:12.440Z,8.70
2022-11-16T11:33:51.227Z,8.66
2022-11-16T11:36:27.235Z,8.71
2022-11-16T11:39:01.573Z,8.62
2022-11-16T11:41:34.570Z,8.72
2022-11-16T11:44:18.135Z,8.62
2022-11-16T11:50:36.470Z,8.81
2022-11-16T11:53:37.005Z,8.74
2022-11-16T11:56:03.527Z,8.78
2022-11-16T11:58:52.137Z,8.79
2022-11-16T12:16:35.551Z,8.80
2022-11-16T12:19:36.209Z,8.84
2022-11-16T12:22:30.925Z,8.81
2022-11-16T12:32:01.640Z,8.83
2022-11-16T12:34:41.340Z,8.84
2022-11-16T12:37:21.052Z,8.85
2022-11-16T12:40:16.814Z,8.75
2022-11-16T12:42:51.656Z,8.81
2022-11-16T12:45:41.797Z,8.74
2022-11-16T12:48:41.888Z,8.82
2022-11-16T12:51:58.966Z,8.81
2022-11-16T12:55:18.657Z,8.21
2022-11-16T13:00:19.605Z,8.77
2022-11-16T13:03:32.191Z,8.77
2022-11-16T13:06:08.913Z,8.83
2022-11-16T13:08:45.966Z,8.81
2022-11-16T13:21:31.515Z,8.74
2022-11-16T13:27:40.630Z,8.77
2022-11-16T13:31:05.975Z,8.76
2022-11-16T13:34:31.737Z,8.75
2022-11-16T13:40:24.011Z,8.75
2022-11-16T13:43:06.182Z,8.73
2022-11-16T13:46:01.415Z,8.60
2022-11-16T13:48:35.558Z,8.70
2022-11-16T14:16:53.664Z,8.59
2022-11-16T14:19:56.272Z,8.43
2022-11-16T14:23:07.354Z,8.50
2022-11-16T14:26:28.869Z,8.56
2022-11-16T14:32:56.123Z,8.42
2022-11-16T14:35:32.646Z,8.41
2022-11-16T14:38:18.172Z,8.42
2022-11-16T14:40:52.585Z,8.55
2022-11-16T14:43:28.111Z,8.54
2022-11-16T14:45:57.894Z,8.55
2022-11-16T14:48:27.956Z,8.55
2022-11-16T14:54:56.379Z,8.47
2022-11-16T14:57:24.036Z,8.48
2022-11-16T15:00:36.365Z,8.54
2022-11-16T15:03:10.344Z,8.54
2022-11-16T15:05:39.506Z,8.55
2022-11-16T15:12:56.528Z,8.53
2022-11-16T15:15:44.219Z,8.42
2022-11-16T15:18:35.679Z,8.58
2022-11-16T15:24:34.385Z,8.59
2022-11-16T15:31:53.066Z,8.59
2022-11-16T15:34:50.975Z,8.59
2022-11-16T15:37:27.127Z,8.59
2022-11-16T15:39:54.211Z,8.61
2022-11-16T15:42:21.279Z,8.58
2022-11-16T15:44:47.627Z,8.59
2022-11-16T15:47:14.486Z,8.60
2022-11-16T15:49:41.270Z,8.60
2022-11-16T15:52:07.592Z,8.54
2022-11-16T15:54:54.059Z,8.60
2022-11-16T15:57:22.683Z,8.59
2022-11-16T15:59:52.000Z,8.60
2022-11-16T16:02:19.387Z,8.61
2022-11-16T16:04:45.926Z,8.59
2022-11-16T16:07:13.529Z,8.61
2022-11-16T16:09:41.110Z,8.59
2022-11-16T16:12:21.130Z,8.49
2022-11-16T16:14:49.221Z,8.63
2022-11-16T16:17:29.874Z,8.61
2022-11-16T16:20:05.149Z,8.60
2022-11-16T16:22:36.956Z,8.60
2022-11-16T16:25:05.820Z,8.60
2022-11-16T16:27:38.574Z,8.59
2022-11-16T16:30:06.045Z,8.60
2022-11-16T16:32:34.673Z,8.61
2022-11-16T16:35:02.396Z,8.62
2022-11-16T16:37:30.968Z,8.61
2022-11-16T16:39:58.047Z,8.63
2022-11-16T16:42:24.965Z,8.62
2022-11-16T16:44:51.301Z,8.61
2022-11-16T16:47:20.667Z,8.60
2022-11-16T16:49:50.409Z,8.62
2022-11-16T16:52:17.250Z,8.63
2022-11-16T16:54:43.765Z,8.61
2022-11-16T16:57:14.798Z,8.62
2022-11-16T16:59:41.136Z,8.63
2022-11-16T17:02:11.283Z,8.64
2022-11-16T17:04:37.503Z,8.65
2022-11-16T17:07:03.811Z,8.66
2022-11-16T17:09:30.325Z,8.64
2022-11-16T17:11:56.563Z,8.64
2022-11-16T17:14:24.518Z,8.67
2022-11-16T17:16:51.634Z,8.65
2022-11-16T17:19:18.030Z,8.67
2022-11-16T17:21:44.266Z,8.69
2022-11-16T17:24:10.764Z,8.69
2022-11-16T17:26:37.086Z,8.68
2022-11-16T17:29:03.329Z,8.65
2022-11-16T17:31:29.848Z,8.67
2022-11-16T17:33:57.685Z,8.67
2022-11-16T17:36:23.934Z,8.68
2022-11-16T17:38:50.471Z,8.68
2022-11-16T17:41:18.794Z,8.70
2022-11-16T17:43:45.903Z,8.59
2022-11-16T17:46:17.594Z,8.69
2022-11-16T17:48:45.275Z,8.67
2022-11-16T17:51:13.379Z,8.70
2022-11-16T17:53:40.828Z,8.69
2022-11-16T17:56:07.630Z,8.68
2022-11-16T17:58:34.051Z,8.62
2022-11-16T18:01:00.690Z,8.66
2022-11-16T18:03:28.430Z,8.60
2022-11-16T18:06:06.081Z,8.57
2022-11-16T18:08:33.577Z,8.47
2022-11-16T18:11:04.921Z,8.58
2022-11-16T18:13:31.382Z,8.55
2022-11-16T18:16:06.166Z,8.55
2022-11-16T18:18:33.522Z,8.54
2022-11-16T18:21:00.752Z,8.52
2022-11-16T18:23:28.079Z,8.49
2022-11-16T18:25:55.265Z,8.49
2022-11-16T18:28:22.436Z,8.48
2022-11-16T18:30:48.688Z,8.45
2022-11-16T18:33:16.159Z,8.44
2022-11-16T18:35:43.518Z,8.32
2022-11-16T18:38:13.135Z,8.45
2022-11-16T18:40:40.308Z,8.42
2022-11-16T18:43:12.374Z,8.45
2022-11-16T18:45:38.619Z,8.36
2022-11-16T18:48:04.831Z,8.32
2022-11-16T18:50:31.344Z,8.41
2022-11-16T18:52:57.674Z,8.38
2022-11-16T18:55:23.899Z,8.36
2022-11-16T18:57:50.426Z,8.35
2022-11-16T19:00:19.136Z,8.33
2022-11-16T19:02:45.451Z,8.35
2022-11-16T19:05:11.984Z,8.32
2022-11-16T19:07:38.306Z,8.33
2022-11-16T19:10:04.906Z,8.30
2022-11-16T19:12:31.406Z,8.25
2022-11-16T19:14:57.654Z,8.27
2022-11-16T19:17:24.888Z,8.28
2022-11-16T19:19:51.418Z,8.26
2022-11-16T19:22:18.251Z,8.24
2022-11-16T19:24:44.498Z,8.21
2022-11-16T19:27:12.267Z,8.18
2022-11-16T19:29:38.504Z,8.16
2022-11-16T19:32:04.908Z,8.17
2022-11-16T19:34:33.485Z,8.14
2022-11-16T19:36:59.909Z,8.14
2022-11-16T19:39:26.707Z,8.18
2022-11-16T19:41:57.051Z,8.14
2022-11-16T19:44:23.871Z,8.15
2022-11-16T19:46:50.146Z,8.12
2022-11-16T19:49:20.266Z,8.12
2022-11-16T19:51:46.636Z,8.14
2022-11-16T19:54:14.743Z,8.11
2022-11-16T19:56:41.986Z,8.06
2022-11-16T19:59:08.308Z,7.93
2022-11-16T20:01:34.626Z,8.08
2022-11-16T20:04:03.413Z,8.09
2022-11-16T20:06:31.903Z,8.06
2022-11-16T20:09:00.830Z,8.05
2022-11-16T20:11:31.630Z,8.05
2022-11-16T20:14:00.652Z,8.04
2022-11-16T20:16:38.138Z,8.05
2022-11-16T20:19:06.349Z,7.97
2022-11-16T20:21:42.627Z,8.04
2022-11-16T20:24:15.877Z,7.94
2022-11-16T20:26:45.046Z,8.01
2022-11-16T20:29:12.530Z,8.03
2022-11-16T20:31:42.440Z,8.01
2022-11-16T20:34:13.874Z,8.05
2022-11-16T20:36:42.163Z,7.99
2022-11-16T20:39:12.722Z,8.00
2022-11-16T20:41:38.961Z,8.01
2022-11-16T20:44:05.548Z,8.02
2022-11-16T20:46:33.368Z,7.86
2022-11-16T20:49:01.704Z,7.99
2022-11-16T20:51:29.213Z,8.00
2022-11-16T20:53:55.541Z,7.99
2022-11-16T20:56:22.109Z,8.01
2022-11-16T20:58:49.483Z,7.96
2022-11-16T21:01:29.044Z,7.96
2022-11-16T21:03:56.319Z,7.93
2022-11-16T21:06:22.747Z,7.94
2022-11-16T21:08:49.120Z,7.91
2022-11-16T21:11:18.191Z,7.90
2022-11-16T21:14:04.024Z,7.89
2022-11-16T21:16:30.683Z,7.90
2022-11-16T21:18:57.033Z,7.91
2022-11-16T21:21:24.204Z,7.91
2022-11-16T21:23:54.809Z,7.79
2022-11-16T21:26:23.143Z,7.87
2022-11-16T21:28:49.596Z,7.90
2022-11-16T21:31:18.817Z,7.90
2022-11-16T21:33:45.745Z,7.89
2022-11-16T21:36:13.754Z,7.87
2022-11-16T21:38:40.538Z,7.86
2022-11-16T21:41:07.151Z,7.85
2022-11-16T21:43:36.515Z,7.85
2022-11-16T21:46:06.005Z,7.90
2022-11-16T21:48:33.826Z,7.88
2022-11-16T21:51:05.619Z,7.89
2022-11-16T21:53:32.765Z,7.88
2022-11-16T21:55:59.748Z,7.83
2022-11-16T21:58:26.028Z,7.84
2022-11-16T22:01:00.380Z,7.85
2022-11-16T22:03:28.726Z,7.82
2022-11-16T22:06:14.724Z,7.79
2022-11-16T22:08:41.614Z,7.80
2022-11-16T22:11:08.676Z,7.82
2022-11-16T22:13:35.658Z,7.84
2022-11-16T22:16:06.710Z,7.71
2022-11-16T22:18:33.316Z,7.80
2022-11-16T22:21:00.874Z,7.80
2022-11-16T22:23:28.016Z,7.65
2022-11-16T22:25:54.558Z,7.78
2022-11-16T22:28:21.640Z,7.77
2022-11-16T22:30:51.620Z,7.77
2022-11-16T22:33:18.344Z,7.75
2022-11-16T22:35:46.969Z,7.73
2022-11-16T22:38:13.486Z,7.73
2022-11-16T22:40:39.746Z,7.73
2022-11-16T22:43:05.994Z,7.72
2022-11-16T22:45:32.507Z,7.70
2022-11-16T22:47:58.732Z,7.71
2022-11-16T22:50:25.019Z,7.70
2022-11-16T22:52:51.576Z,7.69
2022-11-16T22:55:17.818Z,7.66
2022-11-16T22:57:44.038Z,7.67
2022-11-16T23:00:12.006Z,7.69
2022-11-16T23:02:38.225Z,7.66
2022-11-16T23:05:04.712Z,7.65
2022-11-16T23:07:31.331Z,7.63
2022-11-16T23:09:57.626Z,7.67
2022-11-16T23:12:42.256Z,7.66
2022-11-16T23:15:30.840Z,7.60
2022-11-16T23:17:57.255Z,7.59
2022-11-16T23:20:42.284Z,7.58
2022-11-16T23:23:37.322Z,7.57
2022-11-16T23:26:24.577Z,7.46
2022-11-16T23:28:50.818Z,7.54
2022-11-16T23:31:17.353Z,7.58
2022-11-16T23:33:47.738Z,7.56
2022-11-16T23:36:14.248Z,7.54
2022-11-16T23:38:40.820Z,7.50
2022-11-16T23:41:25.675Z,7.52
2022-11-16T23:43:58.435Z,7.50
2022-11-16T23:46:29.710Z,7.49
2022-11-16T23:48:56.804Z,7.49
2022-11-16T23:51:23.505Z,7.49
2022-11-16T23:53:53.451Z,7.46
2022-11-16T23:56:20.864Z,7.46
2022-11-16T23:58:47.550Z,7.45
